sensor_id;sensor_type;location;lat;lon;timestamp;P1;durP1;ratioP1;P2;durP2;ratioP2
3329;SDS011;1677;49.576;10.990;2023-04-21T00:02:02;18.03;;;12.87;;
3329;SDS011;1677;49.576;10.990;2023-04-21T00:04:28;21.00;;;16.40;;
3329;SDS011;1677;49.576;10.990;2023-04-21T00:06:53;17.37;;;13.30;;
3329;SDS011;1677;49.576;10.990;2023-04-21T00:09:19;18.10;;;13.10;;
3329;SDS011;1677;49.576;10.990;2023-04-21T00:11:45;20.90;;;14.27;;
3329;SDS011;1677;49.576;10.990;2023-04-21T00:14:11;17.70;;;14.27;;
3329;SDS011;1677;49.576;10.990;2023-04-21T00:16:37;20.90;;;13.40;;
3329;SDS011;1677;49.576;10.990;2023-04-21T00:19:02;20.37;;;14.70;;
3329;SDS011;1677;49.576;10.990;2023-04-21T00:21:31;19.48;;;14.25;;
3329;SDS011;1677;49.576;10.990;2023-04-21T00:23:57;19.73;;;16.77;;
3329;SDS011;1677;49.576;10.990;2023-04-21T00:26:22;22.17;;;15.37;;
3329;SDS011;1677;49.576;10.990;2023-04-21T00:28:48;20.00;;;14.20;;
3329;SDS011;1677;49.576;10.990;2023-04-21T00:31:14;19.00;;;13.63;;
3329;SDS011;1677;49.576;10.990;2023-04-21T00:33:40;23.80;;;15.10;;
3329;SDS011;1677;49.576;10.990;2023-04-21T00:36:05;18.93;;;13.57;;
3329;SDS011;1677;49.576;10.990;2023-04-21T00:38:31;23.13;;;14.20;;
3329;SDS011;1677;49.576;10.990;2023-04-21T00:40:56;21.47;;;16.80;;
3329;SDS011;1677;49.576;10.990;2023-04-21T00:43:22;20.57;;;15.23;;
3329;SDS011;1677;49.576;10.990;2023-04-21T00:45:49;18.40;;;14.20;;
3329;SDS011;1677;49.576;10.990;2023-04-21T00:48:15;19.83;;;14.63;;
3329;SDS011;1677;49.576;10.990;2023-04-21T00:50:41;17.93;;;13.13;;
3329;SDS011;1677;49.576;10.990;2023-04-21T00:53:08;17.73;;;14.07;;
3329;SDS011;1677;49.576;10.990;2023-04-21T00:55:34;19.92;;;15.20;;
3329;SDS011;1677;49.576;10.990;2023-04-21T00:58:01;20.17;;;15.43;;
3329;SDS011;1677;49.576;10.990;2023-04-21T01:00:27;19.45;;;14.63;;
3329;SDS011;1677;49.576;10.990;2023-04-21T01:02:53;18.47;;;13.37;;
3329;SDS011;1677;49.576;10.990;2023-04-21T01:05:20;17.38;;;13.93;;
3329;SDS011;1677;49.576;10.990;2023-04-21T01:07:45;19.73;;;14.10;;
3329;SDS011;1677;49.576;10.990;2023-04-21T01:10:11;20.20;;;13.70;;
3329;SDS011;1677;49.576;10.990;2023-04-21T01:12:43;17.20;;;13.40;;
3329;SDS011;1677;49.576;10.990;2023-04-21T01:15:13;20.23;;;13.90;;
3329;SDS011;1677;49.576;10.990;2023-04-21T01:17:40;17.75;;;13.60;;
3329;SDS011;1677;49.576;10.990;2023-04-21T01:20:10;20.73;;;16.20;;
3329;SDS011;1677;49.576;10.990;2023-04-21T01:22:37;19.23;;;14.20;;
3329;SDS011;1677;49.576;10.990;2023-04-21T01:25:05;18.42;;;14.02;;
3329;SDS011;1677;49.576;10.990;2023-04-21T01:27:31;20.50;;;14.18;;
3329;SDS011;1677;49.576;10.990;2023-04-21T01:29:57;15.20;;;13.03;;
3329;SDS011;1677;49.576;10.990;2023-04-21T01:32:24;20.53;;;14.80;;
3329;SDS011;1677;49.576;10.990;2023-04-21T01:34:51;18.77;;;14.60;;
3329;SDS011;1677;49.576;10.990;2023-04-21T01:37:21;18.00;;;14.02;;
3329;SDS011;1677;49.576;10.990;2023-04-21T01:39:50;18.23;;;14.38;;
3329;SDS011;1677;49.576;10.990;2023-04-21T01:42:22;21.23;;;13.90;;
3329;SDS011;1677;49.576;10.990;2023-04-21T01:44:49;22.60;;;14.75;;
3329;SDS011;1677;49.576;10.990;2023-04-21T01:47:15;21.52;;;13.38;;
3329;SDS011;1677;49.576;10.990;2023-04-21T01:49:41;18.13;;;14.40;;
3329;SDS011;1677;49.576;10.990;2023-04-21T01:52:06;20.97;;;14.90;;
3329;SDS011;1677;49.576;10.990;2023-04-21T01:54:32;18.43;;;14.63;;
3329;SDS011;1677;49.576;10.990;2023-04-21T01:56:59;20.10;;;15.95;;
3329;SDS011;1677;49.576;10.990;2023-04-21T01:59:25;20.70;;;15.10;;
3329;SDS011;1677;49.576;10.990;2023-04-21T02:01:51;21.80;;;14.50;;
3329;SDS011;1677;49.576;10.990;2023-04-21T02:04:17;18.47;;;13.93;;
3329;SDS011;1677;49.576;10.990;2023-04-21T02:06:42;19.87;;;14.10;;
3329;SDS011;1677;49.576;10.990;2023-04-21T02:09:08;23.80;;;15.80;;
3329;SDS011;1677;49.576;10.990;2023-04-21T02:11:34;21.07;;;15.80;;
3329;SDS011;1677;49.576;10.990;2023-04-21T02:13:59;20.37;;;13.77;;
3329;SDS011;1677;49.576;10.990;2023-04-21T02:16:25;21.60;;;13.90;;
3329;SDS011;1677;49.576;10.990;2023-04-21T02:18:54;19.77;;;15.17;;
3329;SDS011;1677;49.576;10.990;2023-04-21T02:21:30;20.55;;;16.00;;
3329;SDS011;1677;49.576;10.990;2023-04-21T02:23:56;20.10;;;15.55;;
3329;SDS011;1677;49.576;10.990;2023-04-21T02:26:22;20.53;;;15.97;;
3329;SDS011;1677;49.576;10.990;2023-04-21T02:28:48;21.83;;;15.50;;
3329;SDS011;1677;49.576;10.990;2023-04-21T02:31:14;20.08;;;14.40;;
3329;SDS011;1677;49.576;10.990;2023-04-21T02:33:40;22.88;;;15.40;;
3329;SDS011;1677;49.576;10.990;2023-04-21T02:36:06;21.87;;;15.30;;
3329;SDS011;1677;49.576;10.990;2023-04-21T02:38:31;20.30;;;15.90;;
3329;SDS011;1677;49.576;10.990;2023-04-21T02:40:57;25.67;;;16.40;;
3329;SDS011;1677;49.576;10.990;2023-04-21T02:43:23;22.40;;;16.03;;
3329;SDS011;1677;49.576;10.990;2023-04-21T02:45:48;18.57;;;14.63;;
3329;SDS011;1677;49.576;10.990;2023-04-21T02:48:14;19.17;;;15.27;;
3329;SDS011;1677;49.576;10.990;2023-04-21T02:50:44;19.42;;;16.52;;
3329;SDS011;1677;49.576;10.990;2023-04-21T02:53:10;21.90;;;15.40;;
3329;SDS011;1677;49.576;10.990;2023-04-21T02:55:35;19.53;;;15.20;;
3329;SDS011;1677;49.576;10.990;2023-04-21T02:58:01;19.70;;;14.63;;
3329;SDS011;1677;49.576;10.990;2023-04-21T03:00:26;22.37;;;15.70;;
3329;SDS011;1677;49.576;10.990;2023-04-21T03:02:52;19.77;;;14.33;;
3329;SDS011;1677;49.576;10.990;2023-04-21T03:05:18;20.17;;;14.83;;
3329;SDS011;1677;49.576;10.990;2023-04-21T03:07:44;22.20;;;15.97;;
3329;SDS011;1677;49.576;10.990;2023-04-21T03:10:10;19.45;;;15.40;;
3329;SDS011;1677;49.576;10.990;2023-04-21T03:12:35;23.17;;;16.27;;
3329;SDS011;1677;49.576;10.990;2023-04-21T03:15:01;19.33;;;15.83;;
3329;SDS011;1677;49.576;10.990;2023-04-21T03:17:27;20.53;;;15.40;;
3329;SDS011;1677;49.576;10.990;2023-04-21T03:19:52;22.23;;;15.43;;
3329;SDS011;1677;49.576;10.990;2023-04-21T03:22:18;21.77;;;15.40;;
3329;SDS011;1677;49.576;10.990;2023-04-21T03:24:43;20.47;;;15.57;;
3329;SDS011;1677;49.576;10.990;2023-04-21T03:27:09;21.67;;;15.93;;
3329;SDS011;1677;49.576;10.990;2023-04-21T03:29:34;23.00;;;16.57;;
3329;SDS011;1677;49.576;10.990;2023-04-21T03:32:00;26.27;;;16.60;;
3329;SDS011;1677;49.576;10.990;2023-04-21T03:34:25;20.50;;;16.07;;
3329;SDS011;1677;49.576;10.990;2023-04-21T03:36:51;19.97;;;16.13;;
3329;SDS011;1677;49.576;10.990;2023-04-21T03:39:17;19.83;;;15.10;;
3329;SDS011;1677;49.576;10.990;2023-04-21T03:41:42;23.57;;;16.53;;
3329;SDS011;1677;49.576;10.990;2023-04-21T03:44:08;23.20;;;16.43;;
3329;SDS011;1677;49.576;10.990;2023-04-21T03:46:33;21.77;;;15.90;;
3329;SDS011;1677;49.576;10.990;2023-04-21T03:48:59;20.03;;;15.17;;
3329;SDS011;1677;49.576;10.990;2023-04-21T03:51:24;19.57;;;15.50;;
3329;SDS011;1677;49.576;10.990;2023-04-21T03:53:51;24.83;;;16.50;;
3329;SDS011;1677;49.576;10.990;2023-04-21T03:56:17;20.90;;;14.87;;
3329;SDS011;1677;49.576;10.990;2023-04-21T03:58:42;19.57;;;15.40;;
3329;SDS011;1677;49.576;10.990;2023-04-21T04:01:08;20.17;;;14.80;;
3329;SDS011;1677;49.576;10.990;2023-04-21T04:03:33;22.27;;;14.53;;
3329;SDS011;1677;49.576;10.990;2023-04-21T04:05:59;20.80;;;14.60;;
3329;SDS011;1677;49.576;10.990;2023-04-21T04:08:26;45.40;;;33.25;;
3329;SDS011;1677;49.576;10.990;2023-04-21T04:10:52;57.93;;;42.03;;
3329;SDS011;1677;49.576;10.990;2023-04-21T04:13:17;37.40;;;28.50;;
3329;SDS011;1677;49.576;10.990;2023-04-21T04:15:43;26.80;;;23.53;;
3329;SDS011;1677;49.576;10.990;2023-04-21T04:18:09;27.50;;;20.63;;
3329;SDS011;1677;49.576;10.990;2023-04-21T04:20:34;28.03;;;21.40;;
3329;SDS011;1677;49.576;10.990;2023-04-21T04:23:00;30.63;;;22.60;;
3329;SDS011;1677;49.576;10.990;2023-04-21T04:25:26;29.40;;;20.43;;
3329;SDS011;1677;49.576;10.990;2023-04-21T04:27:51;25.27;;;18.47;;
3329;SDS011;1677;49.576;10.990;2023-04-21T04:30:17;29.40;;;19.63;;
3329;SDS011;1677;49.576;10.990;2023-04-21T04:32:43;24.93;;;19.60;;
3329;SDS011;1677;49.576;10.990;2023-04-21T04:35:09;25.97;;;18.70;;
3329;SDS011;1677;49.576;10.990;2023-04-21T04:37:35;25.97;;;17.87;;
3329;SDS011;1677;49.576;10.990;2023-04-21T04:40:01;25.00;;;17.10;;
3329;SDS011;1677;49.576;10.990;2023-04-21T04:42:30;25.23;;;16.63;;
3329;SDS011;1677;49.576;10.990;2023-04-21T04:44:57;26.48;;;18.70;;
3329;SDS011;1677;49.576;10.990;2023-04-21T04:47:23;23.45;;;17.48;;
3329;SDS011;1677;49.576;10.990;2023-04-21T04:49:49;24.40;;;17.47;;
3329;SDS011;1677;49.576;10.990;2023-04-21T04:52:14;23.70;;;16.40;;
3329;SDS011;1677;49.576;10.990;2023-04-21T04:54:40;23.03;;;15.90;;
3329;SDS011;1677;49.576;10.990;2023-04-21T04:57:06;20.40;;;15.23;;
3329;SDS011;1677;49.576;10.990;2023-04-21T04:59:31;21.97;;;15.17;;
3329;SDS011;1677;49.576;10.990;2023-04-21T05:01:57;21.43;;;15.73;;
3329;SDS011;1677;49.576;10.990;2023-04-21T05:04:23;22.57;;;16.40;;
3329;SDS011;1677;49.576;10.990;2023-04-21T05:06:48;23.30;;;16.57;;
3329;SDS011;1677;49.576;10.990;2023-04-21T05:09:14;24.63;;;15.67;;
3329;SDS011;1677;49.576;10.990;2023-04-21T05:11:40;24.17;;;18.45;;
3329;SDS011;1677;49.576;10.990;2023-04-21T05:14:06;21.97;;;15.37;;
3329;SDS011;1677;49.576;10.990;2023-04-21T05:16:31;21.43;;;16.10;;
3329;SDS011;1677;49.576;10.990;2023-04-21T05:19:00;21.83;;;15.73;;
3329;SDS011;1677;49.576;10.990;2023-04-21T05:21:26;20.90;;;16.38;;
3329;SDS011;1677;49.576;10.990;2023-04-21T05:23:53;23.85;;;18.00;;
3329;SDS011;1677;49.576;10.990;2023-04-21T05:26:19;22.77;;;16.35;;
3329;SDS011;1677;49.576;10.990;2023-04-21T05:28:45;24.60;;;17.63;;
3329;SDS011;1677;49.576;10.990;2023-04-21T05:31:10;20.03;;;15.60;;
3329;SDS011;1677;49.576;10.990;2023-04-21T05:33:36;22.63;;;16.67;;
3329;SDS011;1677;49.576;10.990;2023-04-21T05:36:05;23.93;;;17.00;;
3329;SDS011;1677;49.576;10.990;2023-04-21T05:38:32;22.55;;;15.70;;
3329;SDS011;1677;49.576;10.990;2023-04-21T05:40:58;19.83;;;15.40;;
3329;SDS011;1677;49.576;10.990;2023-04-21T05:43:23;22.80;;;15.20;;
3329;SDS011;1677;49.576;10.990;2023-04-21T05:45:49;20.30;;;15.47;;
3329;SDS011;1677;49.576;10.990;2023-04-21T05:48:14;22.20;;;15.33;;
3329;SDS011;1677;49.576;10.990;2023-04-21T05:50:40;23.30;;;16.50;;
3329;SDS011;1677;49.576;10.990;2023-04-21T05:53:05;19.33;;;14.50;;
3329;SDS011;1677;49.576;10.990;2023-04-21T05:55:32;18.80;;;14.77;;
3329;SDS011;1677;49.576;10.990;2023-04-21T05:57:59;17.67;;;15.23;;
3329;SDS011;1677;49.576;10.990;2023-04-21T06:00:24;17.87;;;13.67;;
3329;SDS011;1677;49.576;10.990;2023-04-21T06:02:50;15.80;;;12.73;;
3329;SDS011;1677;49.576;10.990;2023-04-21T06:05:16;21.13;;;15.30;;
3329;SDS011;1677;49.576;10.990;2023-04-21T06:07:41;17.88;;;13.60;;
3329;SDS011;1677;49.576;10.990;2023-04-21T06:10:07;17.50;;;14.00;;
3329;SDS011;1677;49.576;10.990;2023-04-21T06:12:33;20.92;;;15.25;;
3329;SDS011;1677;49.576;10.990;2023-04-21T06:14:58;19.60;;;13.30;;
3329;SDS011;1677;49.576;10.990;2023-04-21T06:17:24;17.50;;;13.47;;
3329;SDS011;1677;49.576;10.990;2023-04-21T06:19:50;16.93;;;12.27;;
3329;SDS011;1677;49.576;10.990;2023-04-21T06:22:23;14.52;;;11.43;;
3329;SDS011;1677;49.576;10.990;2023-04-21T06:24:49;18.57;;;12.43;;
3329;SDS011;1677;49.576;10.990;2023-04-21T06:27:14;18.00;;;12.50;;
3329;SDS011;1677;49.576;10.990;2023-04-21T06:29:40;19.90;;;13.30;;
3329;SDS011;1677;49.576;10.990;2023-04-21T06:32:07;15.90;;;12.20;;
3329;SDS011;1677;49.576;10.990;2023-04-21T06:34:33;14.47;;;11.43;;
3329;SDS011;1677;49.576;10.990;2023-04-21T06:36:59;20.10;;;11.63;;
3329;SDS011;1677;49.576;10.990;2023-04-21T06:39:25;13.50;;;11.77;;
3329;SDS011;1677;49.576;10.990;2023-04-21T06:41:50;14.43;;;11.07;;
3329;SDS011;1677;49.576;10.990;2023-04-21T06:44:16;15.77;;;11.20;;
3329;SDS011;1677;49.576;10.990;2023-04-21T06:46:42;12.40;;;10.17;;
3329;SDS011;1677;49.576;10.990;2023-04-21T06:49:07;11.97;;;10.67;;
3329;SDS011;1677;49.576;10.990;2023-04-21T06:51:33;16.10;;;11.93;;
3329;SDS011;1677;49.576;10.990;2023-04-21T06:53:59;13.23;;;10.97;;
3329;SDS011;1677;49.576;10.990;2023-04-21T06:56:25;10.67;;;9.00;;
3329;SDS011;1677;49.576;10.990;2023-04-21T06:58:51;11.83;;;9.77;;
3329;SDS011;1677;49.576;10.990;2023-04-21T07:01:17;11.57;;;9.70;;
3329;SDS011;1677;49.576;10.990;2023-04-21T07:03:43;13.83;;;10.63;;
3329;SDS011;1677;49.576;10.990;2023-04-21T07:06:10;14.83;;;10.23;;
3329;SDS011;1677;49.576;10.990;2023-04-21T07:08:36;13.73;;;10.37;;
3329;SDS011;1677;49.576;10.990;2023-04-21T07:11:01;13.57;;;9.90;;
3329;SDS011;1677;49.576;10.990;2023-04-21T07:13:27;12.27;;;9.40;;
3329;SDS011;1677;49.576;10.990;2023-04-21T07:15:53;9.90;;;8.90;;
3329;SDS011;1677;49.576;10.990;2023-04-21T07:18:19;10.57;;;9.50;;
3329;SDS011;1677;49.576;10.990;2023-04-21T07:20:44;10.70;;;8.27;;
3329;SDS011;1677;49.576;10.990;2023-04-21T07:23:10;14.20;;;8.40;;
3329;SDS011;1677;49.576;10.990;2023-04-21T07:25:36;9.87;;;8.10;;
3329;SDS011;1677;49.576;10.990;2023-04-21T07:28:01;10.83;;;9.00;;
3329;SDS011;1677;49.576;10.990;2023-04-21T07:30:28;11.30;;;8.83;;
3329;SDS011;1677;49.576;10.990;2023-04-21T07:32:54;11.30;;;8.73;;
3329;SDS011;1677;49.576;10.990;2023-04-21T07:35:20;9.43;;;7.70;;
3329;SDS011;1677;49.576;10.990;2023-04-21T07:37:46;10.33;;;9.17;;
3329;SDS011;1677;49.576;10.990;2023-04-21T07:40:11;11.90;;;8.43;;
3329;SDS011;1677;49.576;10.990;2023-04-21T07:42:37;9.13;;;7.93;;
3329;SDS011;1677;49.576;10.990;2023-04-21T07:45:03;8.53;;;7.70;;
3329;SDS011;1677;49.576;10.990;2023-04-21T07:47:29;12.00;;;9.07;;
3329;SDS011;1677;49.576;10.990;2023-04-21T07:49:55;10.50;;;8.20;;
3329;SDS011;1677;49.576;10.990;2023-04-21T07:52:21;7.83;;;7.10;;
3329;SDS011;1677;49.576;10.990;2023-04-21T07:54:46;9.97;;;8.13;;
3329;SDS011;1677;49.576;10.990;2023-04-21T07:57:12;8.77;;;7.60;;
3329;SDS011;1677;49.576;10.990;2023-04-21T07:59:38;10.20;;;9.20;;
3329;SDS011;1677;49.576;10.990;2023-04-21T08:02:04;13.70;;;7.67;;
3329;SDS011;1677;49.576;10.990;2023-04-21T08:04:29;8.63;;;7.73;;
3329;SDS011;1677;49.576;10.990;2023-04-21T08:06:55;12.37;;;7.93;;
3329;SDS011;1677;49.576;10.990;2023-04-21T08:09:21;8.07;;;7.27;;
3329;SDS011;1677;49.576;10.990;2023-04-21T08:11:46;11.80;;;8.57;;
3329;SDS011;1677;49.576;10.990;2023-04-21T08:14:12;8.63;;;7.23;;
3329;SDS011;1677;49.576;10.990;2023-04-21T08:16:38;9.97;;;7.43;;
3329;SDS011;1677;49.576;10.990;2023-04-21T08:19:05;10.10;;;9.00;;
3329;SDS011;1677;49.576;10.990;2023-04-21T08:21:31;8.90;;;8.07;;
3329;SDS011;1677;49.576;10.990;2023-04-21T08:23:57;7.73;;;6.93;;
3329;SDS011;1677;49.576;10.990;2023-04-21T08:26:23;9.97;;;7.67;;
3329;SDS011;1677;49.576;10.990;2023-04-21T08:28:49;8.33;;;7.43;;
3329;SDS011;1677;49.576;10.990;2023-04-21T08:31:16;7.83;;;7.03;;
3329;SDS011;1677;49.576;10.990;2023-04-21T08:33:43;9.23;;;6.77;;
3329;SDS011;1677;49.576;10.990;2023-04-21T08:36:08;8.30;;;7.47;;
3329;SDS011;1677;49.576;10.990;2023-04-21T08:38:35;9.03;;;7.40;;
3329;SDS011;1677;49.576;10.990;2023-04-21T08:41:04;7.53;;;6.83;;
3329;SDS011;1677;49.576;10.990;2023-04-21T08:43:31;9.50;;;6.63;;
3329;SDS011;1677;49.576;10.990;2023-04-21T08:45:57;7.30;;;6.60;;
3329;SDS011;1677;49.576;10.990;2023-04-21T08:48:24;7.20;;;6.50;;
3329;SDS011;1677;49.576;10.990;2023-04-21T08:50:52;8.27;;;7.43;;
3329;SDS011;1677;49.576;10.990;2023-04-21T08:53:18;7.27;;;6.57;;
3329;SDS011;1677;49.576;10.990;2023-04-21T08:55:43;8.33;;;7.20;;
3329;SDS011;1677;49.576;10.990;2023-04-21T08:58:09;8.40;;;7.60;;
3329;SDS011;1677;49.576;10.990;2023-04-21T09:00:36;6.93;;;6.27;;
3329;SDS011;1677;49.576;10.990;2023-04-21T09:03:02;6.43;;;5.83;;
3329;SDS011;1677;49.576;10.990;2023-04-21T09:05:30;7.67;;;6.87;;
3329;SDS011;1677;49.576;10.990;2023-04-21T09:08:18;7.37;;;6.67;;
3329;SDS011;1677;49.576;10.990;2023-04-21T09:10:43;7.93;;;7.13;;
3329;SDS011;1677;49.576;10.990;2023-04-21T09:13:11;8.53;;;7.00;;
3329;SDS011;1677;49.576;10.990;2023-04-21T09:15:37;6.70;;;6.10;;
3329;SDS011;1677;49.576;10.990;2023-04-21T09:18:12;7.27;;;6.57;;
3329;SDS011;1677;49.576;10.990;2023-04-21T09:20:38;6.97;;;6.37;;
3329;SDS011;1677;49.576;10.990;2023-04-21T09:23:04;6.40;;;5.80;;
3329;SDS011;1677;49.576;10.990;2023-04-21T09:25:31;6.17;;;5.57;;
3329;SDS011;1677;49.576;10.990;2023-04-21T09:27:58;5.90;;;5.40;;
3329;SDS011;1677;49.576;10.990;2023-04-21T09:30:24;6.30;;;5.67;;
3329;SDS011;1677;49.576;10.990;2023-04-21T09:32:51;6.13;;;5.53;;
3329;SDS011;1677;49.576;10.990;2023-04-21T09:35:21;5.53;;;5.03;;
3329;SDS011;1677;49.576;10.990;2023-04-21T09:37:51;5.57;;;5.00;;
3329;SDS011;1677;49.576;10.990;2023-04-21T09:40:17;5.27;;;4.60;;
3329;SDS011;1677;49.576;10.990;2023-04-21T09:42:43;5.70;;;5.20;;
3329;SDS011;1677;49.576;10.990;2023-04-21T09:45:10;8.70;;;6.00;;
3329;SDS011;1677;49.576;10.990;2023-04-21T09:47:40;7.57;;;5.70;;
3329;SDS011;1677;49.576;10.990;2023-04-21T09:50:10;6.40;;;5.90;;
3329;SDS011;1677;49.576;10.990;2023-04-21T09:52:37;5.73;;;5.10;;
3329;SDS011;1677;49.576;10.990;2023-04-21T09:55:06;5.90;;;5.30;;
3329;SDS011;1677;49.576;10.990;2023-04-21T09:57:36;5.87;;;5.33;;
3329;SDS011;1677;49.576;10.990;2023-04-21T10:00:06;6.13;;;5.53;;
3329;SDS011;1677;49.576;10.990;2023-04-21T10:02:34;6.70;;;6.00;;
3329;SDS011;1677;49.576;10.990;2023-04-21T10:05:06;10.57;;;6.50;;
3329;SDS011;1677;49.576;10.990;2023-04-21T10:07:33;7.90;;;5.50;;
3329;SDS011;1677;49.576;10.990;2023-04-21T10:09:59;7.10;;;5.40;;
3329;SDS011;1677;49.576;10.990;2023-04-21T10:12:25;7.10;;;6.40;;
3329;SDS011;1677;49.576;10.990;2023-04-21T10:14:54;5.93;;;5.27;;
3329;SDS011;1677;49.576;10.990;2023-04-21T10:17:21;5.60;;;5.10;;
3329;SDS011;1677;49.576;10.990;2023-04-21T10:19:52;6.03;;;5.43;;
3329;SDS011;1677;49.576;10.990;2023-04-21T10:22:27;6.03;;;5.30;;
3329;SDS011;1677;49.576;10.990;2023-04-21T10:24:55;5.70;;;5.20;;
3329;SDS011;1677;49.576;10.990;2023-04-21T10:27:34;5.43;;;4.93;;
3329;SDS011;1677;49.576;10.990;2023-04-21T10:30:21;8.43;;;4.87;;
3329;SDS011;1677;49.576;10.990;2023-04-21T10:33:03;4.67;;;4.27;;
3329;SDS011;1677;49.576;10.990;2023-04-21T10:36:15;4.57;;;4.17;;
3329;SDS011;1677;49.576;10.990;2023-04-21T10:38:41;6.83;;;4.47;;
3329;SDS011;1677;49.576;10.990;2023-04-21T10:41:26;4.33;;;3.93;;
3329;SDS011;1677;49.576;10.990;2023-04-21T10:43:52;5.10;;;4.13;;
3329;SDS011;1677;49.576;10.990;2023-04-21T10:46:36;6.33;;;4.70;;
3329;SDS011;1677;49.576;10.990;2023-04-21T10:49:28;5.03;;;4.57;;
3329;SDS011;1677;49.576;10.990;2023-04-21T10:57:07;5.63;;;4.43;;
3329;SDS011;1677;49.576;10.990;2023-04-21T10:59:35;6.37;;;3.87;;
3329;SDS011;1677;49.576;10.990;2023-04-21T11:02:01;3.87;;;3.57;;
3329;SDS011;1677;49.576;10.990;2023-04-21T11:04:27;6.90;;;3.90;;
3329;SDS011;1677;49.576;10.990;2023-04-21T11:07:08;4.80;;;3.70;;
3329;SDS011;1677;49.576;10.990;2023-04-21T11:09:34;4.43;;;4.00;;
3329;SDS011;1677;49.576;10.990;2023-04-21T11:12:02;4.77;;;4.13;;
3329;SDS011;1677;49.576;10.990;2023-04-21T11:14:31;3.83;;;3.40;;
3329;SDS011;1677;49.576;10.990;2023-04-21T11:16:59;4.13;;;3.73;;
3329;SDS011;1677;49.576;10.990;2023-04-21T11:19:25;3.60;;;3.30;;
3329;SDS011;1677;49.576;10.990;2023-04-21T11:21:53;4.40;;;4.00;;
3329;SDS011;1677;49.576;10.990;2023-04-21T11:24:20;7.20;;;3.80;;
3329;SDS011;1677;49.576;10.990;2023-04-21T11:26:45;3.40;;;3.10;;
3329;SDS011;1677;49.576;10.990;2023-04-21T11:29:11;3.80;;;3.40;;
3329;SDS011;1677;49.576;10.990;2023-04-21T11:31:39;5.23;;;3.50;;
3329;SDS011;1677;49.576;10.990;2023-04-21T11:34:06;3.70;;;3.30;;
3329;SDS011;1677;49.576;10.990;2023-04-21T11:36:36;4.80;;;3.93;;
3329;SDS011;1677;49.576;10.990;2023-04-21T11:39:06;4.87;;;3.50;;
3329;SDS011;1677;49.576;10.990;2023-04-21T11:41:33;4.10;;;3.70;;
3329;SDS011;1677;49.576;10.990;2023-04-21T11:44:00;4.37;;;3.97;;
3329;SDS011;1677;49.576;10.990;2023-04-21T11:46:26;4.57;;;4.17;;
3329;SDS011;1677;49.576;10.990;2023-04-21T11:51:25;10.70;;;4.47;;
3329;SDS011;1677;49.576;10.990;2023-04-21T11:53:52;4.47;;;4.07;;
3329;SDS011;1677;49.576;10.990;2023-04-21T11:56:21;4.43;;;4.03;;
3329;SDS011;1677;49.576;10.990;2023-04-21T11:58:50;4.20;;;3.90;;
3329;SDS011;1677;49.576;10.990;2023-04-21T12:01:20;4.20;;;3.80;;
3329;SDS011;1677;49.576;10.990;2023-04-21T12:03:53;5.20;;;4.70;;
3329;SDS011;1677;49.576;10.990;2023-04-21T12:06:22;4.70;;;4.20;;
3329;SDS011;1677;49.576;10.990;2023-04-21T12:08:54;5.20;;;4.20;;
3329;SDS011;1677;49.576;10.990;2023-04-21T12:11:23;5.83;;;4.00;;
3329;SDS011;1677;49.576;10.990;2023-04-21T12:13:52;3.50;;;3.20;;
3329;SDS011;1677;49.576;10.990;2023-04-21T12:16:17;4.73;;;3.70;;
3329;SDS011;1677;49.576;10.990;2023-04-21T12:18:43;4.20;;;3.43;;
3329;SDS011;1677;49.576;10.990;2023-04-21T12:21:09;4.07;;;3.67;;
3329;SDS011;1677;49.576;10.990;2023-04-21T12:23:39;3.53;;;3.17;;
3329;SDS011;1677;49.576;10.990;2023-04-21T12:26:05;3.50;;;3.20;;
3329;SDS011;1677;49.576;10.990;2023-04-21T12:28:30;4.20;;;3.47;;
3329;SDS011;1677;49.576;10.990;2023-04-21T12:30:56;3.90;;;3.60;;
3329;SDS011;1677;49.576;10.990;2023-04-21T12:33:22;3.77;;;3.40;;
3329;SDS011;1677;49.576;10.990;2023-04-21T12:35:47;3.57;;;3.27;;
3329;SDS011;1677;49.576;10.990;2023-04-21T12:38:13;3.57;;;3.20;;
3329;SDS011;1677;49.576;10.990;2023-04-21T12:40:38;3.40;;;3.10;;
3329;SDS011;1677;49.576;10.990;2023-04-21T12:43:04;3.40;;;3.10;;
3329;SDS011;1677;49.576;10.990;2023-04-21T12:45:30;4.90;;;4.10;;
3329;SDS011;1677;49.576;10.990;2023-04-21T12:47:56;3.90;;;3.60;;
3329;SDS011;1677;49.576;10.990;2023-04-21T12:50:22;4.07;;;3.37;;
3329;SDS011;1677;49.576;10.990;2023-04-21T12:52:48;3.73;;;3.43;;
3329;SDS011;1677;49.576;10.990;2023-04-21T12:55:15;3.90;;;3.50;;
3329;SDS011;1677;49.576;10.990;2023-04-21T12:57:41;4.17;;;3.80;;
3329;SDS011;1677;49.576;10.990;2023-04-21T13:00:07;4.13;;;3.67;;
3329;SDS011;1677;49.576;10.990;2023-04-21T13:02:36;3.90;;;3.60;;
3329;SDS011;1677;49.576;10.990;2023-04-21T13:05:02;5.40;;;3.27;;
3329;SDS011;1677;49.576;10.990;2023-04-21T13:07:32;3.10;;;2.80;;
3329;SDS011;1677;49.576;10.990;2023-04-21T13:09:58;6.83;;;3.10;;
3329;SDS011;1677;49.576;10.990;2023-04-21T13:12:23;3.83;;;3.53;;
3329;SDS011;1677;49.576;10.990;2023-04-21T13:14:49;3.70;;;3.30;;
3329;SDS011;1677;49.576;10.990;2023-04-21T13:17:15;4.10;;;3.40;;
3329;SDS011;1677;49.576;10.990;2023-04-21T13:19:41;5.13;;;3.30;;
3329;SDS011;1677;49.576;10.990;2023-04-21T13:22:06;4.03;;;2.87;;
3329;SDS011;1677;49.576;10.990;2023-04-21T13:24:32;3.20;;;3.00;;
3329;SDS011;1677;49.576;10.990;2023-04-21T13:26:58;3.03;;;2.63;;
3329;SDS011;1677;49.576;10.990;2023-04-21T13:29:25;2.73;;;2.53;;
3329;SDS011;1677;49.576;10.990;2023-04-21T13:31:54;2.63;;;2.43;;
3329;SDS011;1677;49.576;10.990;2023-04-21T13:34:20;3.10;;;2.80;;
3329;SDS011;1677;49.576;10.990;2023-04-21T13:36:46;3.83;;;2.90;;
3329;SDS011;1677;49.576;10.990;2023-04-21T13:39:12;2.70;;;2.50;;
3329;SDS011;1677;49.576;10.990;2023-04-21T13:41:39;3.47;;;2.90;;
3329;SDS011;1677;49.576;10.990;2023-04-21T13:44:05;3.63;;;3.03;;
3329;SDS011;1677;49.576;10.990;2023-04-21T13:46:31;5.97;;;3.30;;
3329;SDS011;1677;49.576;10.990;2023-04-21T13:48:56;3.73;;;2.20;;
3329;SDS011;1677;49.576;10.990;2023-04-21T13:51:23;4.00;;;2.93;;
3329;SDS011;1677;49.576;10.990;2023-04-21T13:53:49;5.63;;;3.60;;
3329;SDS011;1677;49.576;10.990;2023-04-21T13:56:15;3.13;;;2.83;;
3329;SDS011;1677;49.576;10.990;2023-04-21T13:58:41;4.17;;;3.73;;
3329;SDS011;1677;49.576;10.990;2023-04-21T14:01:06;3.60;;;3.30;;
3329;SDS011;1677;49.576;10.990;2023-04-21T14:03:32;6.63;;;3.37;;
3329;SDS011;1677;49.576;10.990;2023-04-21T14:05:57;3.20;;;2.33;;
3329;SDS011;1677;49.576;10.990;2023-04-21T14:08:23;3.10;;;2.80;;
3329;SDS011;1677;49.576;10.990;2023-04-21T14:10:49;3.50;;;3.00;;
3329;SDS011;1677;49.576;10.990;2023-04-21T14:13:14;5.67;;;3.40;;
3329;SDS011;1677;49.576;10.990;2023-04-21T14:15:40;3.40;;;3.10;;
3329;SDS011;1677;49.576;10.990;2023-04-21T14:18:06;3.80;;;3.00;;
3329;SDS011;1677;49.576;10.990;2023-04-21T14:20:31;4.83;;;3.37;;
3329;SDS011;1677;49.576;10.990;2023-04-21T14:22:57;3.83;;;3.10;;
3329;SDS011;1677;49.576;10.990;2023-04-21T14:25:22;3.10;;;2.80;;
3329;SDS011;1677;49.576;10.990;2023-04-21T14:27:48;3.70;;;3.40;;
3329;SDS011;1677;49.576;10.990;2023-04-21T14:30:13;3.33;;;3.03;;
3329;SDS011;1677;49.576;10.990;2023-04-21T14:32:39;5.23;;;3.23;;
3329;SDS011;1677;49.576;10.990;2023-04-21T14:35:10;3.67;;;3.00;;
3329;SDS011;1677;49.576;10.990;2023-04-21T14:37:36;6.47;;;2.90;;
3329;SDS011;1677;49.576;10.990;2023-04-21T14:40:02;2.80;;;2.50;;
3329;SDS011;1677;49.576;10.990;2023-04-21T14:42:28;4.83;;;2.90;;
3329;SDS011;1677;49.576;10.990;2023-04-21T14:44:53;6.03;;;3.17;;
3329;SDS011;1677;49.576;10.990;2023-04-21T14:47:19;2.83;;;2.57;;
3329;SDS011;1677;49.576;10.990;2023-04-21T14:49:46;3.60;;;2.87;;
3329;SDS011;1677;49.576;10.990;2023-04-21T14:52:13;3.97;;;2.83;;
3329;SDS011;1677;49.576;10.990;2023-04-21T14:54:39;4.90;;;3.13;;